createdAt,value
2019-05-18T00:00:07.876Z,99.90
2019-05-18T00:02:40.470Z,99.90
2019-05-18T00:05:12.632Z,99.90
2019-05-18T00:07:43.708Z,99.90
2019-05-18T00:10:14.755Z,99.90
2019-05-18T00:12:45.976Z,99.90
2019-05-18T00:15:17.279Z,99.90
2019-05-18T00:17:50.052Z,99.90
2019-05-18T00:20:21.246Z,99.90
2019-05-18T00:22:52.159Z,99.90
2019-05-18T00:25:23.696Z,99.90
2019-05-18T00:27:54.761Z,99.90
2019-05-18T00:30:25.995Z,99.90
2019-05-18T00:32:57.159Z,99.90
2019-05-18T00:35:28.389Z,99.90
2019-05-18T00:37:59.395Z,99.90
2019-05-18T00:40:30.631Z,99.90
2019-05-18T00:43:02.769Z,99.90
2019-05-18T00:45:33.924Z,99.90
2019-05-18T00:48:05.472Z,99.90
2019-05-18T00:50:36.603Z,99.90
2019-05-18T00:53:09.071Z,99.90
2019-05-18T00:55:40.060Z,99.90
2019-05-18T00:58:11.242Z,99.90
2019-05-18T01:00:42.408Z,99.90
2019-05-18T01:03:13.714Z,99.90
2019-05-18T01:05:44.632Z,99.90
2019-05-18T01:08:15.803Z,99.90
2019-05-18T01:10:47.063Z,99.90
2019-05-18T01:13:18.349Z,99.90
2019-05-18T01:15:49.773Z,99.90
2019-05-18T01:18:20.985Z,99.90
2019-05-18T01:20:52.372Z,99.90
2019-05-18T01:23:23.539Z,99.90
2019-05-18T01:25:54.699Z,99.90
2019-05-18T01:28:25.610Z,99.90
2019-05-18T01:30:56.844Z,99.90
2019-05-18T01:33:37.207Z,99.90
2019-05-18T01:36:08.383Z,99.90
2019-05-18T01:38:39.612Z,99.90
2019-05-18T01:41:10.768Z,99.90
2019-05-18T01:43:42.037Z,99.90
2019-05-18T01:46:13.171Z,99.90
2019-05-18T01:48:44.099Z,99.90
2019-05-18T01:51:15.251Z,99.90
2019-05-18T01:53:46.183Z,99.90
2019-05-18T01:56:17.971Z,99.90
2019-05-18T01:58:55.648Z,99.90
2019-05-18T02:01:27.036Z,99.90
2019-05-18T02:03:59.097Z,99.90
2019-05-18T02:06:31.518Z,99.90
2019-05-18T02:09:04.184Z,99.90
2019-05-18T02:11:36.272Z,99.90
2019-05-18T02:14:09.317Z,99.90
2019-05-18T02:16:41.303Z,99.90
2019-05-18T02:19:13.430Z,99.90
2019-05-18T02:21:46.037Z,99.90
2019-05-18T02:24:18.290Z,99.90
2019-05-18T02:26:54.108Z,99.90
2019-05-18T02:29:26.048Z,99.90
2019-05-18T02:31:57.497Z,99.90
2019-05-18T02:34:28.451Z,99.90
2019-05-18T02:37:04.078Z,99.90
2019-05-18T02:39:35.886Z,99.90
2019-05-18T02:42:07.997Z,99.90
2019-05-18T02:44:40.495Z,99.90
2019-05-18T02:47:14.968Z,99.90
2019-05-18T02:49:47.408Z,99.90
2019-05-18T02:52:23.684Z,99.90
2019-05-18T02:54:55.446Z,99.90
2019-05-18T02:57:26.577Z,99.90
2019-05-18T03:00:01.693Z,99.90
2019-05-18T03:02:33.017Z,99.90
2019-05-18T03:05:05.598Z,99.90
2019-05-18T03:07:37.895Z,99.90
2019-05-18T03:10:09.317Z,99.90
2019-05-18T03:12:40.455Z,99.90
2019-05-18T03:15:13.276Z,99.90
2019-05-18T03:17:45.034Z,99.90
2019-05-18T03:20:17.241Z,99.90
2019-05-18T03:22:48.161Z,99.90
2019-05-18T03:25:19.765Z,99.90
2019-05-18T03:27:53.061Z,99.90
2019-05-18T03:30:26.310Z,99.90
2019-05-18T03:32:57.521Z,99.90
2019-05-18T03:35:30.448Z,99.90
2019-05-18T03:38:05.623Z,99.90
2019-05-18T03:40:37.950Z,99.90
2019-05-18T03:43:10.258Z,99.90
2019-05-18T03:45:42.363Z,99.90
2019-05-18T03:48:14.367Z,99.90
2019-05-18T03:50:46.685Z,99.90
2019-05-18T03:53:20.353Z,99.90
2019-05-18T03:55:54.357Z,99.90
2019-05-18T03:58:25.847Z,99.90
2019-05-18T04:00:58.469Z,99.90
2019-05-18T04:03:31.315Z,99.90
2019-05-18T04:06:03.034Z,99.90
2019-05-18T04:08:35.666Z,99.90
2019-05-18T04:11:07.022Z,99.90
2019-05-18T04:13:38.173Z,99.90
2019-05-18T04:16:09.336Z,99.90
2019-05-18T04:18:40.472Z,99.90
2019-05-18T04:21:11.625Z,99.90
2019-05-18T04:23:42.522Z,99.90
2019-05-18T04:26:14.049Z,99.90
2019-05-18T04:28:45.208Z,99.90
2019-05-18T04:31:16.150Z,99.90
2019-05-18T04:33:47.280Z,99.90
2019-05-18T04:36:18.471Z,99.90
2019-05-18T04:38:52.358Z,99.90
2019-05-18T04:41:23.319Z,99.90
2019-05-18T04:43:54.808Z,99.90
2019-05-18T04:46:26.569Z,99.90
2019-05-18T04:48:58.123Z,99.90
2019-05-18T04:51:29.064Z,99.90
2019-05-18T04:54:00.223Z,99.90
2019-05-18T04:56:31.400Z,99.90
2019-05-18T04:59:02.334Z,99.90
2019-05-18T05:01:33.584Z,99.90
2019-05-18T05:04:04.820Z,99.90
2019-05-18T05:06:36.044Z,99.90
2019-05-18T05:09:08.287Z,99.90
2019-05-18T05:11:39.494Z,99.90
2019-05-18T05:14:11.879Z,99.90
2019-05-18T05:16:44.159Z,99.90
2019-05-18T05:19:15.307Z,99.90
2019-05-18T05:21:46.749Z,99.90
2019-05-18T05:24:17.932Z,99.90
2019-05-18T05:26:49.404Z,99.90
2019-05-18T05:29:20.592Z,99.90
2019-05-18T05:31:51.771Z,99.90
2019-05-18T05:34:23.293Z,99.90
2019-05-18T05:36:54.516Z,99.90
2019-05-18T05:39:26.023Z,99.90
2019-05-18T05:41:57.393Z,99.90
2019-05-18T05:44:28.645Z,99.90
2019-05-18T05:46:59.589Z,99.90
2019-05-18T05:49:30.733Z,99.90
2019-05-18T05:52:01.915Z,99.90
2019-05-18T05:54:35.368Z,99.90
2019-05-18T05:57:07.605Z,99.90
2019-05-18T05:59:38.783Z,99.90
2019-05-18T06:02:09.796Z,99.90
2019-05-18T06:04:41.229Z,99.90
2019-05-18T06:07:12.483Z,99.90
2019-05-18T06:09:43.652Z,99.90
2019-05-18T06:12:15.056Z,99.90
2019-05-18T06:14:46.203Z,99.90
2019-05-18T06:17:17.135Z,99.90
2019-05-18T06:19:48.040Z,99.90
2019-05-18T06:22:19.233Z,99.90
2019-05-18T06:24:50.165Z,99.90
2019-05-18T06:27:22.908Z,99.90
2019-05-18T06:29:54.571Z,99.90
2019-05-18T06:32:26.703Z,99.90
2019-05-18T06:34:58.080Z,99.90
2019-05-18T06:37:29.237Z,99.90
2019-05-18T06:40:00.376Z,99.90
2019-05-18T06:42:31.540Z,99.90
2019-05-18T06:45:02.794Z,99.90
2019-05-18T06:47:34.275Z,99.90
2019-05-18T06:50:05.501Z,99.90
2019-05-18T06:52:36.670Z,99.90
2019-05-18T06:55:07.750Z,99.90
2019-05-18T06:57:40.371Z,99.90
2019-05-18T07:00:12.991Z,99.90
2019-05-18T07:02:43.991Z,99.90
2019-05-18T07:05:15.271Z,99.90
2019-05-18T07:07:46.447Z,99.90
2019-05-18T07:10:17.508Z,99.90
2019-05-18T07:12:49.734Z,99.90
2019-05-18T07:15:21.211Z,99.90
2019-05-18T07:17:52.396Z,99.80
2019-05-18T07:20:23.827Z,99.80
2019-05-18T07:22:56.256Z,99.40
2019-05-18T07:25:27.414Z,99.20
2019-05-18T07:27:58.570Z,99.70
2019-05-18T07:30:29.796Z,99.60
2019-05-18T07:33:00.959Z,99.10
2019-05-18T07:35:37.600Z,98.80
2019-05-18T07:38:09.063Z,98.60
2019-05-18T07:40:39.991Z,98.90
2019-05-18T07:43:12.399Z,98.70
2019-05-18T07:45:43.547Z,97.70
2019-05-18T07:48:15.975Z,98.00
2019-05-18T07:50:53.736Z,97.20
2019-05-18T07:53:24.647Z,97.20
2019-05-18T07:55:56.055Z,96.70
2019-05-18T07:58:27.311Z,97.10
2019-05-18T08:00:59.552Z,97.30
2019-05-18T08:03:30.822Z,96.40
2019-05-18T08:06:02.605Z,96.60
2019-05-18T08:08:34.174Z,96.90
2019-05-18T08:11:05.323Z,97.00
2019-05-18T08:13:36.582Z,96.60
2019-05-18T08:16:07.837Z,96.60
2019-05-18T08:18:39.048Z,96.60
2019-05-18T08:21:10.292Z,96.90
2019-05-18T08:23:42.395Z,96.20
2019-05-18T08:26:13.648Z,95.80
2019-05-18T08:28:44.914Z,96.10
2019-05-18T08:31:16.091Z,96.00
2019-05-18T08:33:47.531Z,95.30
2019-05-18T08:36:18.685Z,94.80
2019-05-18T08:38:49.853Z,94.40
2019-05-18T08:41:22.365Z,94.80
2019-05-18T08:43:54.795Z,94.50
2019-05-18T08:46:28.403Z,95.00
2019-05-18T08:49:02.652Z,93.90
2019-05-18T08:51:35.118Z,94.50
2019-05-18T08:54:06.096Z,93.80
2019-05-18T08:56:37.270Z,94.20
2019-05-18T08:59:21.490Z,94.20
2019-05-18T09:01:52.778Z,94.80
2019-05-18T09:04:24.945Z,94.30
2019-05-18T09:06:56.379Z,93.80
2019-05-18T09:09:27.525Z,93.40
2019-05-18T09:11:58.427Z,94.50
2019-05-18T09:14:29.336Z,94.90
2019-05-18T09:17:00.775Z,94.50
2019-05-18T09:19:32.196Z,94.80
2019-05-18T09:22:03.115Z,94.90
2019-05-18T09:24:34.720Z,94.90
2019-05-18T09:27:05.857Z,95.20
2019-05-18T09:29:37.093Z,95.50
2019-05-18T09:32:08.248Z,95.40
2019-05-18T09:34:39.251Z,95.40
2019-05-18T09:37:10.407Z,95.30
2019-05-18T09:39:41.644Z,95.40
2019-05-18T09:42:12.792Z,95.60
2019-05-18T09:44:44.698Z,95.70
2019-05-18T09:47:15.671Z,95.40
2019-05-18T09:49:46.614Z,95.40
2019-05-18T09:52:17.848Z,95.30
2019-05-18T09:54:49.015Z,95.10
2019-05-18T09:57:20.260Z,95.30
2019-05-18T09:59:51.672Z,94.90
2019-05-18T10:02:22.836Z,95.00
2019-05-18T10:04:54.009Z,94.50
2019-05-18T10:07:25.186Z,94.00
2019-05-18T10:09:56.359Z,93.40
2019-05-18T10:12:27.748Z,93.70
2019-05-18T10:14:59.170Z,94.10
2019-05-18T10:17:30.665Z,93.40
2019-05-18T10:20:02.317Z,93.70
2019-05-18T10:22:33.469Z,94.10
2019-05-18T10:25:04.816Z,93.60
2019-05-18T10:27:36.509Z,93.60
2019-05-18T10:30:09.908Z,93.30
2019-05-18T10:32:40.840Z,92.20
2019-05-18T10:35:13.406Z,92.50
2019-05-18T10:37:44.561Z,93.30
2019-05-18T10:40:15.881Z,92.60
2019-05-18T10:42:47.035Z,92.70
2019-05-18T10:45:18.303Z,92.40
2019-05-18T10:47:49.487Z,93.00
2019-05-18T10:50:20.734Z,92.40
2019-05-18T10:52:52.148Z,92.60
2019-05-18T10:55:23.458Z,91.80
2019-05-18T10:57:54.688Z,91.90
2019-05-18T11:00:25.672Z,91.00
2019-05-18T11:02:56.840Z,91.20
2019-05-18T11:05:28.109Z,91.80
2019-05-18T11:07:59.530Z,91.40
2019-05-18T11:10:30.780Z,91.00
2019-05-18T11:13:02.039Z,90.30
2019-05-18T11:15:33.317Z,90.60
2019-05-18T11:18:04.331Z,91.00
2019-05-18T11:20:35.226Z,90.90
2019-05-18T11:23:06.545Z,91.20
2019-05-18T11:25:37.464Z,91.00
2019-05-18T11:28:08.681Z,90.60
2019-05-18T11:30:39.931Z,90.00
2019-05-18T11:33:11.084Z,90.10
2019-05-18T11:35:42.975Z,90.10
2019-05-18T11:38:14.934Z,90.50
2019-05-18T11:40:45.867Z,90.00
2019-05-18T11:43:17.551Z,90.20
2019-05-18T11:45:48.791Z,89.80
2019-05-18T11:48:20.685Z,90.60
2019-05-18T11:50:52.941Z,89.50
2019-05-18T11:53:24.001Z,89.30
2019-05-18T11:55:54.958Z,89.60
2019-05-18T11:58:26.783Z,89.80
2019-05-18T12:00:58.324Z,88.60
2019-05-18T12:03:31.460Z,87.80
2019-05-18T12:06:06.450Z,89.50
2019-05-18T12:08:37.592Z,86.60
2019-05-18T12:11:10.504Z,87.40
2019-05-18T12:13:48.490Z,87.70
2019-05-18T12:16:19.435Z,88.00
2019-05-18T12:18:51.139Z,88.70
2019-05-18T12:21:25.740Z,88.80
2019-05-18T12:24:15.232Z,89.00
2019-05-18T12:26:49.096Z,88.30
2019-05-18T12:29:20.316Z,88.10
2019-05-18T12:31:51.744Z,87.40
2019-05-18T12:34:24.085Z,89.60
2019-05-18T12:36:55.305Z,90.50
2019-05-18T12:39:26.460Z,90.20
2019-05-18T12:41:57.708Z,90.70
2019-05-18T12:44:28.876Z,90.10
2019-05-18T12:46:59.970Z,91.10
2019-05-18T12:49:31.140Z,90.30
2019-05-18T12:52:02.388Z,89.70
2019-05-18T12:54:45.608Z,89.70
2019-05-18T12:57:06.436Z,90.80
2019-05-18T12:59:37.572Z,91.00
2019-05-18T13:02:09.799Z,90.10
2019-05-18T13:04:41.934Z,90.00
2019-05-18T13:07:13.363Z,88.80
2019-05-18T13:09:44.547Z,90.10
2019-05-18T13:12:16.223Z,90.30
2019-05-18T13:14:47.715Z,89.40
2019-05-18T13:17:21.280Z,89.10
2019-05-18T13:19:51.576Z,88.40
2019-05-18T13:22:22.568Z,89.30
2019-05-18T13:24:53.722Z,90.00
2019-05-18T13:27:38.447Z,90.00
2019-05-18T13:30:02.111Z,90.60
2019-05-18T13:32:33.176Z,89.10
2019-05-18T13:35:04.806Z,89.30
2019-05-18T13:37:35.935Z,88.60
2019-05-18T13:40:08.144Z,88.40
2019-05-18T13:42:40.305Z,89.20
2019-05-18T13:45:11.814Z,88.80
2019-05-18T13:47:42.983Z,89.10
2019-05-18T13:50:14.578Z,88.80
2019-05-18T13:52:45.760Z,89.20
2019-05-18T13:55:17.143Z,88.40
2019-05-18T13:57:48.312Z,89.10
2019-05-18T14:00:20.508Z,88.70
2019-05-18T14:02:51.955Z,89.30
2019-05-18T14:05:23.178Z,89.50
2019-05-18T14:07:54.336Z,89.00
2019-05-18T14:10:26.443Z,88.80
2019-05-18T14:12:57.675Z,86.80
2019-05-18T14:15:28.910Z,86.00
2019-05-18T14:18:00.211Z,86.60
2019-05-18T14:20:31.397Z,86.10
2019-05-18T14:23:02.848Z,86.90
2019-05-18T14:25:34.044Z,87.10
2019-05-18T14:28:05.381Z,86.80
2019-05-18T14:30:36.824Z,87.10
2019-05-18T14:33:08.146Z,87.00
2019-05-18T14:35:39.296Z,86.80
2019-05-18T14:38:10.546Z,86.70
2019-05-18T14:40:41.750Z,87.00
2019-05-18T14:43:13.300Z,87.90
2019-05-18T14:45:44.775Z,86.70
2019-05-18T14:48:18.172Z,86.00
2019-05-18T14:50:49.323Z,88.00
2019-05-18T14:53:20.491Z,87.40
2019-05-18T14:55:51.393Z,87.30
2019-05-18T14:58:22.532Z,88.10
2019-05-18T15:00:55.133Z,89.50
2019-05-18T15:03:26.404Z,88.20
2019-05-18T15:05:57.567Z,87.80
2019-05-18T15:08:28.727Z,88.00
2019-05-18T15:11:00.015Z,88.60
2019-05-18T15:13:31.184Z,88.50
2019-05-18T15:16:02.211Z,86.90
2019-05-18T15:18:33.157Z,86.60
2019-05-18T15:21:04.473Z,86.30
2019-05-18T15:23:35.907Z,88.60
2019-05-18T15:26:07.223Z,87.80
2019-05-18T15:28:38.327Z,87.90
2019-05-18T15:31:10.226Z,87.90
2019-05-18T15:33:41.611Z,85.40
2019-05-18T15:36:12.571Z,83.50
2019-05-18T15:38:43.756Z,82.60
2019-05-18T15:41:18.694Z,85.00
2019-05-18T15:43:51.337Z,89.10
2019-05-18T15:46:22.772Z,91.10
2019-05-18T15:48:54.015Z,90.90
2019-05-18T15:51:25.350Z,88.90
2019-05-18T15:53:56.551Z,89.60
2019-05-18T15:56:27.760Z,90.20
2019-05-18T15:58:58.949Z,90.60
2019-05-18T16:01:30.296Z,89.30
2019-05-18T16:04:01.203Z,90.10
2019-05-18T16:06:32.436Z,89.50
2019-05-18T16:09:04.939Z,90.40
2019-05-18T16:11:36.417Z,90.50
2019-05-18T16:14:07.709Z,91.00
2019-05-18T16:16:39.097Z,90.70
2019-05-18T16:19:10.205Z,91.00
2019-05-18T16:21:41.138Z,90.80
2019-05-18T16:24:12.661Z,90.90
2019-05-18T16:26:46.406Z,91.10
2019-05-18T16:29:18.524Z,90.90
2019-05-18T16:31:50.141Z,90.40
2019-05-18T16:34:21.226Z,90.60
2019-05-18T16:36:53.358Z,91.30
2019-05-18T16:39:24.768Z,91.20
2019-05-18T16:41:56.041Z,91.40
2019-05-18T16:44:27.272Z,91.40
2019-05-18T16:47:02.192Z,91.60
2019-05-18T16:49:33.120Z,90.90
2019-05-18T16:52:04.216Z,91.50
2019-05-18T16:54:35.371Z,91.40
2019-05-18T16:57:08.625Z,91.70
2019-05-18T16:59:39.744Z,91.90
2019-05-18T17:02:10.995Z,91.50
2019-05-18T17:04:42.491Z,91.60
2019-05-18T17:07:14.860Z,91.80
2019-05-18T17:09:46.133Z,91.40
2019-05-18T17:12:17.386Z,91.60
2019-05-18T17:14:48.886Z,91.40
2019-05-18T17:17:20.992Z,91.40
2019-05-18T17:19:51.928Z,91.30
2019-05-18T17:22:23.437Z,91.20
2019-05-18T17:24:54.616Z,91.20
2019-05-18T17:27:26.773Z,91.50
2019-05-18T17:29:57.953Z,91.40
2019-05-18T17:32:29.115Z,91.50
2019-05-18T17:35:00.280Z,91.50
2019-05-18T17:37:32.064Z,91.10
2019-05-18T17:40:03.413Z,91.50
2019-05-18T17:42:34.716Z,91.70
2019-05-18T17:45:06.693Z,92.10
2019-05-18T17:47:37.700Z,92.50
2019-05-18T17:50:10.816Z,92.80
2019-05-18T17:52:41.931Z,93.10
2019-05-18T17:55:16.392Z,93.50
2019-05-18T17:57:46.485Z,93.80
2019-05-18T18:00:18.196Z,93.60
2019-05-18T18:02:50.896Z,93.60
2019-05-18T18:05:22.168Z,94.00
2019-05-18T18:07:55.609Z,93.70
2019-05-18T18:10:26.653Z,93.80
2019-05-18T18:12:57.815Z,94.00
2019-05-18T18:15:28.825Z,93.40
2019-05-18T18:18:00.001Z,93.40
2019-05-18T18:20:31.508Z,93.00
2019-05-18T18:23:02.653Z,92.90
2019-05-18T18:25:33.976Z,92.90
2019-05-18T18:28:05.552Z,93.20
2019-05-18T18:30:36.928Z,93.50
2019-05-18T18:33:08.103Z,93.70
2019-05-18T18:35:39.780Z,94.30
2019-05-18T18:38:11.005Z,94.00
2019-05-18T18:40:42.635Z,94.10
2019-05-18T18:43:13.835Z,94.20
2019-05-18T18:45:45.324Z,94.30
2019-05-18T18:48:16.569Z,94.50
2019-05-18T18:50:47.807Z,94.70
2019-05-18T18:53:26.620Z,94.80
2019-05-18T18:55:58.152Z,95.00
2019-05-18T18:58:29.076Z,95.20
2019-05-18T19:01:00.314Z,95.20
2019-05-18T19:03:32.920Z,95.20
2019-05-18T19:06:05.017Z,95.50
2019-05-18T19:08:36.023Z,95.60
2019-05-18T19:11:07.280Z,95.80
2019-05-18T19:13:38.203Z,96.00
2019-05-18T19:16:09.377Z,96.30
2019-05-18T19:18:40.891Z,96.60
2019-05-18T19:21:12.379Z,96.60
2019-05-18T19:23:43.404Z,96.60
2019-05-18T19:26:14.849Z,96.80
2019-05-18T19:28:46.059Z,96.80
2019-05-18T19:31:17.377Z,97.00
2019-05-18T19:33:48.840Z,97.00
2019-05-18T19:36:20.032Z,97.20
2019-05-18T19:38:50.980Z,97.20
2019-05-18T19:41:22.403Z,97.30
2019-05-18T19:43:53.551Z,97.40
2019-05-18T19:46:25.243Z,97.40
2019-05-18T19:48:56.408Z,97.50
2019-05-18T19:51:27.616Z,97.60
2019-05-18T19:53:58.526Z,97.60
2019-05-18T19:56:37.498Z,97.90
2019-05-18T19:59:02.767Z,97.90
2019-05-18T20:01:33.964Z,97.80
2019-05-18T20:04:05.615Z,97.80
2019-05-18T20:06:37.520Z,97.90
2019-05-18T20:09:08.758Z,98.00
2019-05-18T20:11:40.511Z,98.00
2019-05-18T20:14:11.692Z,98.00
2019-05-18T20:16:42.949Z,98.10
2019-05-18T20:19:14.176Z,98.10
2019-05-18T20:21:47.719Z,98.30
2019-05-18T20:24:19.080Z,98.40
2019-05-18T20:26:50.536Z,98.50
2019-05-18T20:29:22.065Z,98.50
2019-05-18T20:31:53.250Z,98.50
2019-05-18T20:34:25.787Z,98.70
2019-05-18T20:36:57.068Z,98.60
2019-05-18T20:39:28.648Z,98.70
2019-05-18T20:41:59.713Z,98.90
2019-05-18T20:44:31.265Z,98.80
2019-05-18T20:47:02.723Z,98.90
2019-05-18T20:49:34.249Z,99.30
2019-05-18T20:52:06.535Z,99.30
2019-05-18T20:54:37.931Z,99.20
2019-05-18T20:57:09.260Z,99.10
2019-05-18T20:59:41.005Z,99.10
2019-05-18T21:02:14.343Z,99.50
2019-05-18T21:04:46.027Z,99.60
2019-05-18T21:07:17.061Z,99.70
2019-05-18T21:09:48.414Z,99.40
2019-05-18T21:12:20.200Z,99.40
2019-05-18T21:14:51.766Z,99.60
2019-05-18T21:17:22.859Z,99.80
2019-05-18T21:19:53.924Z,99.90
2019-05-18T21:22:24.937Z,99.90
2019-05-18T21:24:56.863Z,99.90
2019-05-18T21:27:27.904Z,99.90
2019-05-18T21:29:59.488Z,99.90
2019-05-18T21:32:31.372Z,99.90
2019-05-18T21:35:03.000Z,99.90
2019-05-18T21:37:34.148Z,99.90
2019-05-18T21:40:06.052Z,99.90
2019-05-18T21:42:38.560Z,99.90
2019-05-18T21:45:11.551Z,99.90
2019-05-18T21:47:42.853Z,99.90
2019-05-18T21:50:14.297Z,99.90
2019-05-18T21:52:45.656Z,99.90
2019-05-18T21:55:16.993Z,99.90
2019-05-18T21:57:48.095Z,99.90
2019-05-18T22:00:19.830Z,99.90
2019-05-18T22:02:52.651Z,99.90
2019-05-18T22:05:24.189Z,99.90
2019-05-18T22:07:55.864Z,99.90
2019-05-18T22:10:27.824Z,99.90
2019-05-18T22:12:59.133Z,99.90
2019-05-18T22:15:30.172Z,99.90
2019-05-18T22:18:04.279Z,99.90
2019-05-18T22:20:37.646Z,99.90
2019-05-18T22:23:09.795Z,99.90
2019-05-18T22:25:40.838Z,99.90
2019-05-18T22:28:11.940Z,99.90
2019-05-18T22:30:42.992Z,99.90
2019-05-18T22:33:14.325Z,99.90
2019-05-18T22:35:45.522Z,99.90
2019-05-18T22:38:16.786Z,99.90
2019-05-18T22:40:48.116Z,99.90
2019-05-18T22:43:19.765Z,99.90
2019-05-18T22:45:51.268Z,99.90
2019-05-18T22:48:22.482Z,99.90
2019-05-18T22:50:53.830Z,99.90
2019-05-18T22:53:25.435Z,99.90
2019-05-18T22:55:56.453Z,99.90
2019-05-18T22:58:27.812Z,99.90
2019-05-18T23:00:59.069Z,99.90
2019-05-18T23:03:30.386Z,99.90
2019-05-18T23:06:01.798Z,99.90
2019-05-18T23:08:34.156Z,99.90
2019-05-18T23:11:05.596Z,99.90
2019-05-18T23:13:36.628Z,99.90
2019-05-18T23:16:07.993Z,99.90
2019-05-18T23:18:39.185Z,99.90
2019-05-18T23:21:10.225Z,99.90
2019-05-18T23:23:41.986Z,99.90
2019-05-18T23:26:15.212Z,99.90
2019-05-18T23:28:46.798Z,99.90
2019-05-18T23:31:18.923Z,99.90
2019-05-18T23:33:50.212Z,99.90
2019-05-18T23:36:33.666Z,99.90
2019-05-18T23:39:06.908Z,99.90
2019-05-18T23:41:38.227Z,99.90
2019-05-18T23:44:09.468Z,99.90
2019-05-18T23:46:40.974Z,99.90
2019-05-18T23:49:13.719Z,99.90
2019-05-18T23:51:45.006Z,99.90
2019-05-18T23:54:16.448Z,99.90
2019-05-18T23:56:47.790Z,99.90
2019-05-18T23:59:19.416Z,99.90
